createdAt,value
2023-09-05T00:01:47.957Z,98886.69
2023-09-05T00:04:15.467Z,98885.19
2023-09-05T00:06:42.538Z,98880.94
2023-09-05T00:09:09.531Z,98887.31
2023-09-05T00:11:36.491Z,98879.22
2023-09-05T00:14:03.413Z,98880.69
2023-09-05T00:16:30.703Z,98866.03
2023-09-05T00:18:58.165Z,98871.19
2023-09-05T00:21:25.096Z,98857.91
2023-09-05T00:23:52.038Z,98866.53
2023-09-05T00:26:18.956Z,98865.16
2023-09-05T00:28:46.330Z,98860.16
2023-09-05T00:31:15.574Z,98857.56
2023-09-05T00:33:42.553Z,98856.53
2023-09-05T00:36:10.142Z,98855.31
2023-09-05T00:38:38.135Z,98853.91
2023-09-05T00:41:06.128Z,98854.41
2023-09-05T00:43:33.147Z,98858.94
2023-09-05T00:46:00.101Z,98859.13
2023-09-05T00:48:29.765Z,98846.69
2023-09-05T00:50:59.889Z,98857.00
2023-09-05T00:53:27.940Z,98851.13
2023-09-05T00:55:55.261Z,98852.28
2023-09-05T00:58:22.305Z,98852.66
2023-09-05T01:00:49.246Z,98843.72
2023-09-05T01:03:16.196Z,98842.19
2023-09-05T01:05:49.380Z,98835.13
2023-09-05T01:08:27.647Z,98833.63
2023-09-05T01:11:01.242Z,98831.81
2023-09-05T01:13:28.962Z,98838.88
2023-09-05T01:15:56.295Z,98836.31
2023-09-05T01:18:23.358Z,98836.41
2023-09-05T01:21:07.594Z,98833.38
2023-09-05T01:23:41.153Z,98830.66
2023-09-05T01:26:08.606Z,98833.94
2023-09-05T01:28:37.303Z,98835.37
2023-09-05T01:31:04.425Z,98838.84
2023-09-05T01:33:31.358Z,98840.06
2023-09-05T01:35:58.322Z,98829.78
2023-09-05T01:38:25.389Z,98816.22
2023-09-05T01:40:52.301Z,98818.59
2023-09-05T01:43:19.557Z,98823.38
2023-09-05T01:45:46.431Z,98826.50
2023-09-05T01:48:13.328Z,98826.38
2023-09-05T01:50:40.246Z,98830.88
2023-09-05T01:53:07.234Z,98830.19
2023-09-05T01:55:34.295Z,98824.63
2023-09-05T01:58:01.217Z,98834.28
2023-09-05T02:00:28.237Z,98832.38
2023-09-05T02:02:55.258Z,98833.28
2023-09-05T02:05:22.208Z,98828.91
2023-09-05T02:07:49.085Z,98826.31
2023-09-05T02:10:16.142Z,98819.63
2023-09-05T02:12:45.384Z,98820.94
2023-09-05T02:15:12.620Z,98829.28
2023-09-05T02:17:39.596Z,98825.19
2023-09-05T02:20:07.160Z,98824.44
2023-09-05T02:22:34.119Z,98826.22
2023-09-05T02:25:02.300Z,98828.25
2023-09-05T02:27:29.324Z,98824.72
2023-09-05T02:30:02.663Z,98825.91
2023-09-05T02:32:30.913Z,98824.16
2023-09-05T02:34:59.404Z,98827.81
2023-09-05T02:37:26.497Z,98823.12
2023-09-05T02:39:53.945Z,98831.62
2023-09-05T02:42:20.914Z,98822.25
2023-09-05T02:44:52.329Z,98822.88
2023-09-05T02:47:19.311Z,98824.97
2023-09-05T02:49:46.229Z,98826.44
2023-09-05T02:52:13.523Z,98823.16
2023-09-05T02:54:40.421Z,98818.41
2023-09-05T02:57:07.604Z,98818.59
2023-09-05T02:59:34.505Z,98828.03
2023-09-05T03:02:01.401Z,98825.06
2023-09-05T03:04:33.809Z,98823.88
2023-09-05T03:07:02.786Z,98825.59
2023-09-05T03:09:30.655Z,98825.38
2023-09-05T03:11:58.001Z,98828.00
2023-09-05T03:14:24.973Z,98831.25
2023-09-05T03:16:52.444Z,98830.22
2023-09-05T03:19:23.297Z,98825.59
2023-09-05T03:21:51.037Z,98824.75
2023-09-05T03:24:19.544Z,98831.00
2023-09-05T03:26:47.729Z,98838.97
2023-09-05T03:29:14.866Z,98838.38
2023-09-05T03:31:42.347Z,98841.69
2023-09-05T03:34:09.825Z,98852.28
2023-09-05T03:36:37.585Z,98855.78
2023-09-05T03:39:04.558Z,98845.00
2023-09-05T03:41:32.042Z,98847.81
2023-09-05T03:43:59.055Z,98841.13
2023-09-05T03:46:25.978Z,98849.63
2023-09-05T03:48:54.484Z,98850.09
2023-09-05T03:51:21.552Z,98855.00
2023-09-05T03:53:48.589Z,98849.81
2023-09-05T03:56:15.532Z,98848.50
2023-09-05T03:58:42.528Z,98853.56
2023-09-05T04:01:18.695Z,98851.44
2023-09-05T04:03:48.618Z,98857.16
2023-09-05T04:06:15.649Z,98861.53
2023-09-05T04:08:42.546Z,98868.22
2023-09-05T04:11:09.491Z,98862.34
2023-09-05T04:13:36.480Z,98874.84
2023-09-05T04:16:07.128Z,98865.53
2023-09-05T04:18:35.357Z,98876.44
2023-09-05T04:21:02.716Z,98869.09
2023-09-05T04:23:29.995Z,98870.06
2023-09-05T04:25:59.265Z,98870.75
2023-09-05T04:28:26.848Z,98866.00
2023-09-05T04:30:56.017Z,98873.75
2023-09-05T04:33:25.560Z,98867.88
2023-09-05T04:35:53.019Z,98872.28
2023-09-05T04:38:20.102Z,98879.22
2023-09-05T04:40:47.012Z,98878.09
2023-09-05T04:43:13.936Z,98881.22
2023-09-05T04:45:40.848Z,98878.06
2023-09-05T04:48:08.090Z,98882.78
2023-09-05T04:50:35.062Z,98878.81
2023-09-05T04:53:02.001Z,98880.03
2023-09-05T04:55:28.949Z,98883.41
2023-09-05T04:57:55.866Z,98883.75
2023-09-05T05:00:24.760Z,98890.75
2023-09-05T05:02:51.750Z,98900.31
2023-09-05T05:05:18.865Z,98894.69
2023-09-05T05:07:46.789Z,98899.78
2023-09-05T05:10:14.034Z,98894.75
2023-09-05T05:12:41.859Z,98888.41
2023-09-05T05:15:09.454Z,98887.22
2023-09-05T05:17:37.832Z,98892.59
2023-09-05T05:20:07.867Z,98895.44
2023-09-05T05:22:34.946Z,98886.28
2023-09-05T05:25:01.899Z,98898.81
2023-09-05T05:27:29.023Z,98893.38
2023-09-05T05:29:55.966Z,98888.34
2023-09-05T05:32:22.894Z,98892.25
2023-09-05T05:34:50.180Z,98891.91
2023-09-05T05:37:17.748Z,98897.41
2023-09-05T05:39:44.876Z,98898.13
2023-09-05T05:42:12.629Z,98896.78
2023-09-05T05:44:41.163Z,98895.69
2023-09-05T05:47:08.282Z,98901.22
2023-09-05T05:49:35.200Z,98900.50
2023-09-05T05:52:02.494Z,98900.69
2023-09-05T05:54:29.462Z,98897.63
2023-09-05T05:56:56.976Z,98900.72
2023-09-05T05:59:25.944Z,98901.94
2023-09-05T06:01:54.003Z,98905.78
2023-09-05T06:04:21.580Z,98895.34
2023-09-05T06:06:51.834Z,98904.56
2023-09-05T06:09:21.711Z,98896.53
2023-09-05T06:11:48.714Z,98898.34
2023-09-05T06:14:18.281Z,98895.16
2023-09-05T06:16:47.922Z,98896.78
2023-09-05T06:19:15.642Z,98901.59
2023-09-05T06:21:47.964Z,98894.38
2023-09-05T06:24:15.287Z,98904.94
2023-09-05T06:26:42.910Z,98902.94
2023-09-05T06:29:09.992Z,98896.91
2023-09-05T06:31:37.036Z,98892.72
2023-09-05T06:34:04.141Z,98892.09
2023-09-05T06:36:31.025Z,98882.28
2023-09-05T06:38:57.977Z,98885.94
2023-09-05T06:41:24.994Z,98893.75
2023-09-05T06:43:51.935Z,98900.00
2023-09-05T06:46:18.838Z,98883.97
2023-09-05T06:48:46.675Z,98893.69
2023-09-05T06:51:13.651Z,98880.03
2023-09-05T06:53:40.583Z,98891.03
2023-09-05T06:56:08.035Z,98893.22
2023-09-05T06:58:34.979Z,98888.63
2023-09-05T07:01:06.167Z,98890.63
2023-09-05T07:03:33.164Z,98896.78
2023-09-05T07:06:07.161Z,98898.84
2023-09-05T07:08:34.929Z,98901.81
2023-09-05T07:11:02.278Z,98898.94
2023-09-05T07:13:29.376Z,98896.94
2023-09-05T07:15:58.065Z,98897.16
2023-09-05T07:18:25.909Z,98888.87
2023-09-05T07:20:53.406Z,98888.97
2023-09-05T07:23:20.434Z,98895.44
2023-09-05T07:25:47.439Z,98900.72
2023-09-05T07:28:14.465Z,98913.34
2023-09-05T07:30:42.155Z,98911.31
2023-09-05T07:33:09.689Z,98909.72
2023-09-05T07:35:37.980Z,98907.88
2023-09-05T07:38:05.222Z,98903.22
2023-09-05T07:40:32.210Z,98914.69
2023-09-05T07:43:01.700Z,98911.37
2023-09-05T07:45:28.866Z,98918.25
2023-09-05T07:47:55.870Z,98910.16
2023-09-05T07:50:23.964Z,98924.69
2023-09-05T07:52:50.898Z,98917.75
2023-09-05T07:55:18.162Z,98917.09
2023-09-05T07:57:45.518Z,98926.19
2023-09-05T08:00:16.227Z,98929.91
2023-09-05T08:02:43.655Z,98924.28
2023-09-05T08:05:10.929Z,98926.69
2023-09-05T08:07:39.078Z,98933.47
2023-09-05T08:10:07.891Z,98918.19
2023-09-05T08:12:35.231Z,98925.56
2023-09-05T08:15:02.187Z,98922.69
2023-09-05T08:17:30.409Z,98925.72
2023-09-05T08:19:58.002Z,98926.50
2023-09-05T08:22:25.052Z,98923.78
2023-09-05T08:24:53.318Z,98916.41
2023-09-05T08:27:20.851Z,98924.81
2023-09-05T08:29:48.014Z,98918.34
2023-09-05T08:32:15.043Z,98909.13
2023-09-05T08:34:42.141Z,98909.59
2023-09-05T08:37:09.150Z,98913.63
2023-09-05T08:39:36.073Z,98911.84
2023-09-05T08:42:06.432Z,98914.06
2023-09-05T08:44:40.069Z,98913.22
2023-09-05T08:47:07.194Z,98915.91
2023-09-05T08:49:34.258Z,98915.44
2023-09-05T08:52:05.646Z,98910.75
2023-09-05T08:54:32.626Z,98913.19
2023-09-05T08:56:59.973Z,98899.75
2023-09-05T08:59:27.144Z,98900.81
2023-09-05T09:01:56.433Z,98908.25
2023-09-05T09:04:24.346Z,98899.94
2023-09-05T09:06:56.873Z,98900.97
2023-09-05T09:09:42.530Z,98895.03
2023-09-05T09:12:09.626Z,98905.03
2023-09-05T09:14:36.840Z,98908.16
2023-09-05T09:17:07.004Z,98900.50
2023-09-05T09:19:34.405Z,98893.94
2023-09-05T09:22:03.438Z,98897.66
2023-09-05T09:24:37.883Z,98899.47
2023-09-05T09:27:06.279Z,98896.56
2023-09-05T09:29:34.122Z,98887.75
2023-09-05T09:32:06.280Z,98894.84
2023-09-05T09:34:36.004Z,98891.13
2023-09-05T09:37:03.134Z,98894.72
2023-09-05T09:39:31.334Z,98887.41
2023-09-05T09:42:02.361Z,98891.41
2023-09-05T09:44:35.221Z,98881.28
2023-09-05T09:47:04.019Z,98879.31
2023-09-05T09:49:32.151Z,98883.25
2023-09-05T09:52:05.767Z,98889.53
2023-09-05T09:54:39.903Z,98871.38
2023-09-05T09:57:07.488Z,98869.03
2023-09-05T09:59:37.161Z,98875.88
2023-09-05T10:02:14.943Z,98869.69
2023-09-05T10:04:50.517Z,98869.09
2023-09-05T10:07:19.818Z,98877.62
2023-09-05T10:09:49.473Z,98861.09
2023-09-05T10:12:22.311Z,98867.91
2023-09-05T10:14:50.289Z,98854.38
2023-09-05T10:17:17.668Z,98846.09
2023-09-05T10:19:45.689Z,98852.81
2023-09-05T10:22:18.250Z,98839.72
2023-09-05T10:24:46.018Z,98848.94
2023-09-05T10:27:13.066Z,98841.50
2023-09-05T10:29:45.175Z,98840.28
2023-09-05T10:32:23.341Z,98846.06
2023-09-05T10:34:50.249Z,98833.72
2023-09-05T10:37:20.645Z,98837.63
2023-09-05T10:39:48.552Z,98833.72
2023-09-05T10:42:16.222Z,98840.13
2023-09-05T10:44:48.987Z,98829.94
2023-09-05T10:47:38.962Z,98832.56
2023-09-05T10:50:07.862Z,98834.78
2023-09-05T10:52:35.271Z,98840.22
2023-09-05T10:55:30.676Z,98830.69
2023-09-05T10:57:57.907Z,98820.50
2023-09-05T11:00:28.327Z,98830.69
2023-09-05T11:02:57.488Z,98816.69
2023-09-05T11:05:28.549Z,98817.16
2023-09-05T11:08:00.229Z,98810.09
2023-09-05T11:10:32.702Z,98815.03
2023-09-05T11:13:15.564Z,98816.41
2023-09-05T11:15:46.230Z,98808.34
2023-09-05T11:18:15.776Z,98815.31
2023-09-05T11:20:44.882Z,98798.53
2023-09-05T11:23:18.023Z,98805.97
2023-09-05T11:25:49.402Z,98792.91
2023-09-05T11:28:16.964Z,98808.06
2023-09-05T11:30:47.775Z,98799.69
2023-09-05T11:33:16.104Z,98787.97
2023-09-05T11:35:44.308Z,98792.28
2023-09-05T11:40:40.077Z,98787.94
2023-09-05T11:43:10.185Z,98791.59
2023-09-05T11:45:46.438Z,98782.09
2023-09-05T11:48:15.931Z,98789.25
2023-09-05T11:50:45.369Z,98779.13
2023-09-05T11:53:15.438Z,98783.75
2023-09-05T11:55:43.628Z,98786.53
2023-09-05T11:58:11.837Z,98780.13
2023-09-05T12:00:44.656Z,98774.94
2023-09-05T12:03:14.339Z,98784.88
2023-09-05T12:05:42.389Z,98778.91
2023-09-05T12:08:18.670Z,98769.22
2023-09-05T12:10:57.195Z,98778.91
2023-09-05T12:13:44.706Z,98777.34
2023-09-05T12:16:12.227Z,98776.16
2023-09-05T12:18:40.915Z,98770.19
2023-09-05T12:21:08.767Z,98766.03
2023-09-05T12:23:35.881Z,98769.13
2023-09-05T12:26:04.149Z,98769.19
2023-09-05T12:28:32.315Z,98766.53
2023-09-05T12:31:07.087Z,98775.34
2023-09-05T12:33:34.164Z,98770.50
2023-09-05T12:36:01.276Z,98768.69
2023-09-05T12:38:31.240Z,98776.44
2023-09-05T12:40:59.070Z,98778.62
2023-09-05T12:43:26.234Z,98762.31
2023-09-05T12:45:53.272Z,98772.72
2023-09-05T12:48:20.286Z,98769.78
2023-09-05T12:50:50.580Z,98757.63
2023-09-05T12:53:20.571Z,98759.75
2023-09-05T12:55:48.289Z,98754.72
2023-09-05T12:58:15.506Z,98760.00
2023-09-05T13:00:42.936Z,98760.34
2023-09-05T13:03:12.713Z,98758.31
2023-09-05T13:05:41.014Z,98745.84
2023-09-05T13:08:10.190Z,98747.38
2023-09-05T13:10:37.117Z,98737.06
2023-09-05T13:13:06.022Z,98734.41
2023-09-05T13:15:33.344Z,98732.59
2023-09-05T13:18:01.239Z,98742.25
2023-09-05T13:20:31.769Z,98745.03
2023-09-05T13:22:59.527Z,98717.53
2023-09-05T13:25:28.794Z,98737.91
2023-09-05T13:27:55.688Z,98745.59
2023-09-05T13:30:22.625Z,98735.03
2023-09-05T13:32:49.621Z,98742.66
2023-09-05T13:35:16.538Z,98739.06
2023-09-05T13:37:43.764Z,98749.50
2023-09-05T13:40:11.101Z,98751.63
2023-09-05T13:42:38.139Z,98749.72
2023-09-05T13:45:05.685Z,98743.06
2023-09-05T13:47:34.464Z,98750.72
2023-09-05T13:50:01.444Z,98739.47
2023-09-05T13:52:28.379Z,98742.03
2023-09-05T13:54:55.317Z,98731.31
2023-09-05T13:57:24.312Z,98728.44
2023-09-05T13:59:52.789Z,98737.94
2023-09-05T14:02:19.895Z,98733.34
2023-09-05T14:04:46.792Z,98743.69
2023-09-05T14:07:13.788Z,98736.75
2023-09-05T14:09:40.779Z,98747.78
2023-09-05T14:12:09.253Z,98738.25
2023-09-05T14:14:36.531Z,98746.09
2023-09-05T14:17:03.660Z,98733.78
2023-09-05T14:19:30.650Z,98726.16
2023-09-05T14:21:57.593Z,98721.56
2023-09-05T14:24:24.820Z,98719.44
2023-09-05T14:26:51.837Z,98733.34
2023-09-05T14:29:18.730Z,98735.50
2023-09-05T14:31:45.704Z,98740.03
2023-09-05T14:34:13.194Z,98739.19
2023-09-05T14:36:41.178Z,98734.50
2023-09-05T14:39:08.295Z,98734.63
2023-09-05T14:41:35.256Z,98734.47
2023-09-05T14:44:05.055Z,98730.69
2023-09-05T14:46:33.766Z,98733.16
2023-09-05T14:49:01.035Z,98735.22
2023-09-05T14:51:28.122Z,98728.34
2023-09-05T14:53:55.320Z,98718.16
2023-09-05T14:56:22.349Z,98724.31
2023-09-05T14:58:49.756Z,98721.56
2023-09-05T15:01:16.821Z,98727.03
2023-09-05T15:03:44.286Z,98730.41
2023-09-05T15:06:11.981Z,98714.84
2023-09-05T15:08:39.208Z,98726.84
2023-09-05T15:11:06.494Z,98718.66
2023-09-05T15:13:34.262Z,98731.16
2023-09-05T15:16:02.055Z,98733.78
2023-09-05T15:18:29.849Z,98728.94
2023-09-05T15:20:57.074Z,98734.31
2023-09-05T15:23:24.105Z,98730.28
2023-09-05T15:25:51.075Z,98727.25
2023-09-05T15:28:18.131Z,98732.78
2023-09-05T15:30:45.257Z,98722.94
2023-09-05T15:33:12.455Z,98725.19
2023-09-05T15:35:39.443Z,98723.25
2023-09-05T15:38:07.530Z,98711.56
2023-09-05T15:40:38.229Z,98715.59
2023-09-05T15:43:05.372Z,98721.09
2023-09-05T15:45:32.801Z,98717.00
2023-09-05T15:48:01.426Z,98712.22
2023-09-05T15:50:29.701Z,98705.19
2023-09-05T15:52:56.760Z,98703.91
2023-09-05T15:55:23.674Z,98705.16
2023-09-05T15:57:50.835Z,98697.81
2023-09-05T16:00:18.271Z,98699.88
2023-09-05T16:02:46.996Z,98699.75
2023-09-05T16:05:14.131Z,98711.28
2023-09-05T16:07:41.060Z,98702.66
2023-09-05T16:10:08.388Z,98705.28
2023-09-05T16:12:37.176Z,98705.72
2023-09-05T16:15:04.469Z,98709.34
2023-09-05T16:17:31.324Z,98700.41
2023-09-05T16:19:58.185Z,98706.97
2023-09-05T16:22:25.139Z,98710.56
2023-09-05T16:24:52.100Z,98711.69
2023-09-05T16:27:19.137Z,98709.03
2023-09-05T16:29:47.834Z,98701.81
2023-09-05T16:32:16.037Z,98704.75
2023-09-05T16:34:43.085Z,98696.81
2023-09-05T16:37:10.141Z,98707.09
2023-09-05T16:39:38.811Z,98704.19
2023-09-05T16:42:06.024Z,98701.41
2023-09-05T16:44:32.953Z,98708.62
2023-09-05T16:46:59.919Z,98707.63
2023-09-05T16:49:26.838Z,98715.44
2023-09-05T16:51:53.887Z,98704.06
2023-09-05T16:54:20.889Z,98703.63
2023-09-05T16:56:47.874Z,98703.00
2023-09-05T16:59:14.823Z,98699.47
2023-09-05T17:01:42.541Z,98713.25
2023-09-05T17:04:09.788Z,98706.97
2023-09-05T17:06:37.471Z,98715.28
2023-09-05T17:09:09.875Z,98714.53
2023-09-05T17:11:37.392Z,98724.41
2023-09-05T17:14:05.067Z,98714.81
2023-09-05T17:16:32.622Z,98726.06
2023-09-05T17:18:59.785Z,98728.72
2023-09-05T17:21:26.940Z,98721.44
2023-09-05T17:23:53.919Z,98731.00
2023-09-05T17:26:20.903Z,98731.28
2023-09-05T17:28:47.838Z,98741.28
2023-09-05T17:31:15.077Z,98737.41
2023-09-05T17:33:42.221Z,98744.44
2023-09-05T17:36:13.009Z,98737.50
2023-09-05T17:38:40.653Z,98735.13
2023-09-05T17:41:08.424Z,98731.09
2023-09-05T17:43:36.258Z,98746.16
2023-09-05T17:46:07.285Z,98742.63
2023-09-05T17:48:35.376Z,98747.19
2023-09-05T17:51:02.435Z,98748.72
2023-09-05T17:53:29.740Z,98761.09
2023-09-05T17:55:57.215Z,98750.25
2023-09-05T17:58:24.459Z,98753.69
2023-09-05T18:00:51.935Z,98753.19
2023-09-05T18:03:19.177Z,98756.50
2023-09-05T18:05:51.011Z,98762.34
2023-09-05T18:08:18.318Z,98764.50
2023-09-05T18:10:46.124Z,98768.16
2023-09-05T18:13:13.075Z,98772.53
2023-09-05T18:15:40.078Z,98773.59
2023-09-05T18:18:07.125Z,98778.03
2023-09-05T18:20:36.191Z,98781.44
2023-09-05T18:23:04.047Z,98779.22
2023-09-05T18:25:32.291Z,98781.91
2023-09-05T18:28:01.017Z,98785.47
2023-09-05T18:30:28.072Z,98786.75
2023-09-05T18:32:55.064Z,98785.06
2023-09-05T18:35:22.068Z,98790.31
2023-09-05T18:37:49.045Z,98798.06
2023-09-05T18:40:16.046Z,98790.53
2023-09-05T18:42:43.025Z,98788.19
2023-09-05T18:45:11.280Z,98785.88
2023-09-05T18:47:38.747Z,98788.75
2023-09-05T18:50:06.519Z,98786.63
2023-09-05T18:52:33.653Z,98789.84
2023-09-05T18:55:00.680Z,98785.88
2023-09-05T18:57:28.590Z,98784.09
2023-09-05T18:59:55.702Z,98787.88
2023-09-05T19:02:29.200Z,98781.19
2023-09-05T19:04:56.986Z,98783.69
2023-09-05T19:07:24.020Z,98781.47
2023-09-05T19:09:51.107Z,98787.38
2023-09-05T19:12:19.689Z,98780.47
2023-09-05T19:14:48.285Z,98786.69
2023-09-05T19:17:15.811Z,98787.88
2023-09-05T19:19:42.716Z,98794.72
2023-09-05T19:22:09.644Z,98798.47
2023-09-05T19:24:37.854Z,98790.44
2023-09-05T19:27:05.422Z,98792.25
2023-09-05T19:29:32.644Z,98792.78
2023-09-05T19:31:59.537Z,98788.16
2023-09-05T19:34:26.696Z,98800.50
2023-09-05T19:36:53.778Z,98795.31
2023-09-05T19:39:20.957Z,98791.56
2023-09-05T19:41:47.960Z,98801.47
2023-09-05T19:44:14.858Z,98790.78
2023-09-05T19:46:41.839Z,98791.28
2023-09-05T19:49:08.811Z,98798.13
2023-09-05T19:51:35.848Z,98796.69
2023-09-05T19:54:02.919Z,98795.44
2023-09-05T19:56:29.836Z,98791.44
2023-09-05T19:58:57.549Z,98792.66
2023-09-05T20:01:24.693Z,98795.75
2023-09-05T20:03:52.783Z,98793.41
2023-09-05T20:06:19.997Z,98790.31
2023-09-05T20:08:47.306Z,98790.66
2023-09-05T20:11:14.256Z,98792.22
2023-09-05T20:13:41.200Z,98790.63
2023-09-05T20:16:08.229Z,98797.50
2023-09-05T20:18:35.198Z,98795.56
2023-09-05T20:21:02.831Z,98799.41
2023-09-05T20:23:29.878Z,98799.53
2023-09-05T20:25:56.814Z,98798.34
2023-09-05T20:28:23.798Z,98794.88
2023-09-05T20:30:55.423Z,98795.75
2023-09-05T20:33:23.995Z,98792.72
2023-09-05T20:35:53.200Z,98803.09
2023-09-05T20:38:21.461Z,98801.78
2023-09-05T20:40:49.010Z,98801.88
2023-09-05T20:43:17.870Z,98800.53
2023-09-05T20:45:45.493Z,98809.41
2023-09-05T20:48:12.922Z,98814.00
2023-09-05T20:50:40.056Z,98810.44
2023-09-05T20:53:07.256Z,98813.06
2023-09-05T20:55:34.926Z,98814.53
2023-09-05T20:58:02.318Z,98807.50
2023-09-05T21:00:30.644Z,98803.41
2023-09-05T21:03:00.618Z,98811.22
2023-09-05T21:05:31.150Z,98810.88
2023-09-05T21:07:58.151Z,98816.69
2023-09-05T21:10:26.450Z,98816.22
2023-09-05T21:12:56.869Z,98819.94
2023-09-05T21:15:24.683Z,98805.41
2023-09-05T21:17:51.808Z,98817.31
2023-09-05T21:20:18.929Z,98813.84
2023-09-05T21:22:45.942Z,98811.53
2023-09-05T21:25:14.452Z,98804.72
2023-09-05T21:27:41.807Z,98807.84
2023-09-05T21:30:10.050Z,98804.03
2023-09-05T21:32:39.917Z,98803.56
2023-09-05T21:35:07.776Z,98806.63
2023-09-05T21:37:34.724Z,98815.25
2023-09-05T21:40:02.047Z,98812.84
2023-09-05T21:42:29.060Z,98814.09
2023-09-05T21:44:56.276Z,98815.09
2023-09-05T21:47:23.504Z,98816.47
2023-09-05T21:49:52.573Z,98819.25
2023-09-05T21:52:20.898Z,98817.03
2023-09-05T21:54:48.051Z,98817.25
2023-09-05T21:57:15.014Z,98816.88
2023-09-05T21:59:42.113Z,98821.09
2023-09-05T22:02:09.097Z,98825.81
2023-09-05T22:04:38.103Z,98820.16
2023-09-05T22:07:05.540Z,98819.53
2023-09-05T22:09:32.703Z,98819.91
2023-09-05T22:12:05.997Z,98822.47
2023-09-05T22:14:33.314Z,98818.94
2023-09-05T22:17:00.705Z,98814.38
2023-09-05T22:19:32.569Z,98813.41
2023-09-05T22:22:03.869Z,98816.53
2023-09-05T22:24:33.064Z,98813.16
2023-09-05T22:27:01.661Z,98824.75
2023-09-05T22:29:28.586Z,98812.34
2023-09-05T22:31:55.602Z,98813.94
2023-09-05T22:34:22.541Z,98827.78
2023-09-05T22:36:51.896Z,98821.28
2023-09-05T22:39:19.880Z,98812.44
2023-09-05T22:41:49.482Z,98816.97
2023-09-05T22:44:16.886Z,98813.06
2023-09-05T22:46:43.931Z,98815.28
2023-09-05T22:49:11.116Z,98815.00
2023-09-05T22:51:38.560Z,98825.34
2023-09-05T22:54:05.944Z,98827.31
2023-09-05T22:56:33.529Z,98817.53
2023-09-05T22:59:00.499Z,98822.38
2023-09-05T23:01:27.619Z,98816.03
2023-09-05T23:03:54.829Z,98820.16
2023-09-05T23:06:21.901Z,98819.41
2023-09-05T23:08:49.148Z,98813.06
2023-09-05T23:11:16.355Z,98817.19
2023-09-05T23:13:43.261Z,98819.22
2023-09-05T23:16:10.328Z,98814.00
2023-09-05T23:18:39.062Z,98810.47
2023-09-05T23:21:06.634Z,98814.56
2023-09-05T23:23:36.330Z,98809.38
2023-09-05T23:26:04.348Z,98817.44
2023-09-05T23:28:32.133Z,98813.63
2023-09-05T23:31:02.047Z,98817.47
2023-09-05T23:33:31.068Z,98814.78
2023-09-05T23:35:58.271Z,98817.72
2023-09-05T23:38:25.551Z,98806.91
2023-09-05T23:40:52.662Z,98817.09
2023-09-05T23:43:19.535Z,98812.44
2023-09-05T23:45:54.249Z,98805.88
2023-09-05T23:48:24.768Z,98814.38
2023-09-05T23:50:52.070Z,98810.28
2023-09-05T23:53:19.082Z,98802.44
2023-09-05T23:55:46.367Z,98810.09
2023-09-05T23:58:13.681Z,98807.22
